Time;durP1;ratioP1;P1;durP2;ratioP2;P2;SDS_P1;SDS_P2;PMS_P1;PMS_P2;Temp;Humidity;BMP_temperature;BMP_pressure;BME280_temperature;BME280_humidity;BME280_pressure;Samples;Min_cycle;Max_cycle;Signal;HPM_P1;HPM_P2
2022/11/06 00:16:03;;;;;;;22.30;12.23;;;8.90;99.90;;;;;;20835079;28;20294;-68
2022/11/06 00:26:07;;;;;;;18.27;11.17;;;8.90;99.90;;;;;;20835021;28;20213;-67
2022/11/06 00:36:12;;;;;;;16.63;10.50;;;8.80;99.90;;;;;;20915365;28;20232;-67
2022/11/06 00:46:14;;;;;;;16.17;9.77;;;8.70;99.90;;;;;;20914825;28;20205;-66
2022/11/06 00:56:19;;;;;;;15.60;11.00;;;8.70;99.90;;;;;;20912911;28;20270;-66
2022/11/06 01:06:24;;;;;;;20.23;11.10;;;8.60;99.90;;;;;;20912995;28;20235;-67
2022/11/06 01:16:27;;;;;;;16.77;10.23;;;8.50;99.90;;;;;;20914538;28;20235;-67
2022/11/06 01:26:29;;;;;;;14.60;10.27;;;8.30;99.90;;;;;;20913359;28;20208;-66
2022/11/06 01:36:40;;;;;;;16.37;9.63;;;8.10;99.90;;;;;;20913538;28;20238;-67
2022/11/06 01:46:41;;;;;;;17.93;9.97;;;8.10;99.90;;;;;;20912892;28;20557;-66
2022/11/06 01:56:44;;;;;;;18.63;10.23;;;8.10;99.90;;;;;;20912828;28;20281;-66
2022/11/06 02:06:47;;;;;;;17.37;10.17;;;8.00;99.90;;;;;;20911880;28;20662;-66
2022/11/06 02:17:01;;;;;;;16.77;10.07;;;7.90;99.90;;;;;;20911909;28;20242;-67
2022/11/06 02:27:18;;;;;;;19.53;10.60;;;7.90;99.90;;;;;;20911755;28;20206;-67
2022/11/06 02:37:27;;;;;;;20.83;10.10;;;7.90;99.90;;;;;;20910909;28;20235;-67
2022/11/06 02:47:30;;;;;;;14.13;9.73;;;7.70;99.90;;;;;;20910100;28;20244;-67
2022/11/06 02:57:36;;;;;;;15.37;9.47;;;7.60;99.80;;;;;;20832086;28;20236;-67
2022/11/06 03:07:51;;;;;;;15.23;10.20;;;7.50;99.80;;;;;;20826302;28;20572;-67
2022/11/06 03:18:08;;;;;;;15.30;9.53;;;7.50;99.90;;;;;;20836480;28;20284;-67
2022/11/06 03:28:33;;;;;;;17.93;9.63;;;7.40;99.70;;;;;;20841372;28;20219;-66
2022/11/06 03:38:55;;;;;;;12.73;9.20;;;7.30;99.80;;;;;;20840302;28;20283;-66
2022/11/06 03:49:01;;;;;;;20.37;9.57;;;7.20;99.80;;;;;;20839408;28;20235;-67
2022/11/06 03:59:05;;;;;;;15.57;8.87;;;7.10;99.70;;;;;;20838840;28;20305;-66
2022/11/06 04:19:30;;;;;;;14.20;8.53;;;6.70;99.30;;;;;;20837148;28;20235;-67
2022/11/06 04:30:00;;;;;;;15.80;9.20;;;6.70;99.40;;;;;;20836245;28;20210;-66
2022/11/06 04:40:08;;;;;;;14.83;9.40;;;6.60;99.40;;;;;;20835771;28;20221;-67
2022/11/06 04:50:12;;;;;;;14.73;8.47;;;6.60;99.50;;;;;;20833757;28;20246;-67
2022/11/06 05:00:15;;;;;;;15.17;9.37;;;6.60;99.40;;;;;;20830781;28;20202;-66
2022/11/06 05:10:17;;;;;;;13.67;8.80;;;6.60;99.40;;;;;;20833392;28;20246;-67
2022/11/06 05:20:18;;;;;;;13.67;8.77;;;6.60;99.40;;;;;;20832529;28;20611;-66
2022/11/06 05:30:20;;;;;;;16.60;8.73;;;6.50;99.20;;;;;;20831782;28;20238;-66
2022/11/06 05:40:22;;;;;;;14.97;9.50;;;6.50;99.30;;;;;;20830854;28;20723;-66
2022/11/06 05:50:24;;;;;;;54.03;10.43;;;6.50;99.30;;;;;;20829998;28;20244;-66
2022/11/06 06:00:25;;;;;;;22.10;10.10;;;6.40;99.40;;;;;;20829933;28;20480;-66
2022/11/06 06:10:27;;;;;;;46.20;11.07;;;6.50;99.90;;;;;;20830011;28;20221;-66
2022/11/06 06:20:29;;;;;;;31.40;10.47;;;6.40;99.90;;;;;;20829207;28;20210;-66
2022/11/06 06:30:30;;;;;;;23.60;10.27;;;6.70;99.90;;;;;;20828826;28;20225;-66
2022/11/06 06:40:32;;;;;;;62.07;10.57;;;6.80;99.90;;;;;;20828729;28;20218;-66
2022/11/06 06:50:34;;;;;;;35.73;9.73;;;6.90;99.90;;;;;;20833280;28;20237;-66
2022/11/06 07:00:36;;;;;;;23.10;10.10;;;6.90;99.90;;;;;;20839624;28;20593;-66
2022/11/06 07:10:37;;;;;;;51.13;9.83;;;6.90;99.90;;;;;;20840542;28;20230;-65
2022/11/06 07:20:39;;;;;;;60.40;10.50;;;6.90;99.90;;;;;;20840600;28;20218;-66
2022/11/06 07:30:41;;;;;;;15.43;9.83;;;7.00;99.90;;;;;;20839232;28;20227;-66
2022/11/06 07:40:42;;;;;;;22.57;9.60;;;7.10;99.90;;;;;;20839153;28;20229;-66
2022/11/06 07:50:44;;;;;;;13.57;9.07;;;7.10;99.90;;;;;;20839149;28;20247;-67
2022/11/06 08:00:50;;;;;;;12.97;9.30;;;7.10;99.90;;;;;;20838376;28;20208;-64
2022/11/06 08:10:52;;;;;;;15.63;9.83;;;7.20;99.90;;;;;;20933368;28;20270;-67
2022/11/06 08:20:54;;;;;;;14.57;9.80;;;7.40;99.90;;;;;;20944431;28;20259;-67
2022/11/06 08:30:56;;;;;;;13.77;9.33;;;7.40;99.90;;;;;;20986151;28;20226;-67
2022/11/06 08:40:57;;;;;;;14.77;9.63;;;7.90;99.90;;;;;;20956661;28;20211;-70
2022/11/06 08:50:59;;;;;;;14.93;9.73;;;8.10;99.90;;;;;;20858487;28;20251;-69
2022/11/06 09:01:01;;;;;;;15.47;9.70;;;8.50;99.90;;;;;;20872541;28;20208;-68
2022/11/06 09:11:06;;;;;;;13.33;9.73;;;8.70;99.90;;;;;;20901139;28;20236;-68
2022/11/06 09:21:08;;;;;;;13.67;9.70;;;9.00;99.90;;;;;;20906487;28;20213;-68
2022/11/06 09:31:10;;;;;;;15.47;9.30;;;9.70;99.70;;;;;;20887819;28;20243;-68
2022/11/06 09:41:44;;;;;;;16.33;11.20;;;9.70;99.90;;;;;;20913294;28;20218;-68
2022/11/06 09:51:58;;;;;;;13.20;9.30;;;10.20;98.70;;;;;;20871522;28;20571;-67
2022/11/06 10:02:00;;;;;;;16.10;8.80;;;10.50;98.20;;;;;;20908673;28;20203;-67
2022/11/06 10:12:37;;;;;;;14.33;8.83;;;10.60;98.50;;;;;;20829296;28;20270;-67
2022/11/06 10:22:43;;;;;;;12.07;8.50;;;10.70;98.10;;;;;;20821666;28;20215;-67
2022/11/06 10:33:19;;;;;;;12.73;8.50;;;10.90;98.00;;;;;;20844793;28;20239;-67
2022/11/06 10:43:44;;;;;;;11.47;8.57;;;11.20;97.60;;;;;;20886628;28;20262;-67
2022/11/06 10:54:08;;;;;;;15.83;8.63;;;11.50;97.00;;;;;;20925778;28;20245;-67
2022/11/06 11:04:10;;;;;;;12.17;8.63;;;11.50;97.30;;;;;;20924793;28;20212;-66
2022/11/06 11:14:14;;;;;;;12.50;9.37;;;11.60;96.90;;;;;;20846000;28;20298;-65
2022/11/06 11:24:15;;;;;;;12.17;8.50;;;11.70;96.60;;;;;;20841260;28;20253;-66
2022/11/06 11:34:24;;;;;;;9.13;6.30;;;11.80;97.00;;;;;;20839219;28;20238;-70
2022/11/06 11:44:26;;;;;;;8.43;5.73;;;12.20;96.80;;;;;;20890998;28;20210;-69
2022/11/06 11:54:32;;;;;;;9.90;5.83;;;12.50;96.10;;;;;;20920768;28;20238;-70
2022/11/06 12:04:39;;;;;;;7.20;5.07;;;12.80;95.20;;;;;;20918468;28;20216;-69
2022/11/06 12:14:40;;;;;;;6.63;4.83;;;13.20;93.70;;;;;;20914185;28;20249;-72
2022/11/06 12:24:51;;;;;;;6.30;5.00;;;13.20;93.50;;;;;;20911933;28;20208;-74
2022/11/06 12:35:22;;;;;;;8.10;6.67;;;13.30;92.60;;;;;;20913846;28;20289;-72
2022/11/06 12:45:34;;;;;;;10.40;7.87;;;13.30;92.10;;;;;;20916188;28;20212;-70
2022/11/06 12:56:01;;;;;;;13.53;8.60;;;13.10;92.00;;;;;;20916504;28;20253;-69
2022/11/06 13:06:21;;;;;;;12.10;9.03;;;12.80;92.30;;;;;;20915973;28;20210;-68
2022/11/06 13:16:31;;;;;;;13.53;9.80;;;12.50;92.50;;;;;;20915386;28;20757;-74
2022/11/06 13:26:39;;;;;;;12.20;9.57;;;12.40;92.70;;;;;;20914580;28;20252;-73
2022/11/06 13:36:41;;;;;;;13.17;9.63;;;12.20;92.80;;;;;;20913752;28;20652;-68
2022/11/06 13:47:04;;;;;;;11.47;8.93;;;12.00;92.60;;;;;;20913105;28;20213;-69
2022/11/06 13:57:48;;;;;;;11.17;8.33;;;11.90;92.90;;;;;;20911901;28;20243;-68
2022/11/06 14:07:51;;;;;;;11.20;8.63;;;11.60;92.60;;;;;;20863221;28;20209;-70
2022/11/06 14:17:58;;;;;;;13.07;9.10;;;11.50;93.00;;;;;;20826488;28;20239;-67
2022/11/06 14:28:00;;;;;;;12.27;9.27;;;11.50;93.20;;;;;;20827429;28;20212;-67
2022/11/06 14:38:25;;;;;;;13.83;9.30;;;11.40;93.40;;;;;;20829010;28;20232;-67
2022/11/06 14:48:41;;;;;;;14.17;10.00;;;11.20;93.40;;;;;;20827854;28;20240;-71
2022/11/06 14:59:19;;;;;;;14.23;9.90;;;11.20;93.60;;;;;;20827606;28;20289;-67
2022/11/06 15:09:23;;;;;;;14.03;10.20;;;11.10;94.00;;;;;;20830732;28;20559;-69
2022/11/06 15:19:29;;;;;;;12.37;9.43;;;11.10;94.40;;;;;;20841729;28;20232;-74
2022/11/06 15:29:36;;;;;;;12.90;9.43;;;11.10;94.70;;;;;;20841087;28;20269;-71
2022/11/06 15:39:40;;;;;;;13.10;9.30;;;11.10;95.00;;;;;;20839594;28;20246;-71
2022/11/06 15:49:41;;;;;;;12.07;8.80;;;10.90;95.00;;;;;;20835752;28;20251;-68
2022/11/06 15:59:46;;;;;;;10.63;7.70;;;10.90;95.30;;;;;;20837412;28;20632;-66
2022/11/06 16:09:51;;;;;;;11.27;8.00;;;10.80;95.20;;;;;;20836060;28;20681;-69
2022/11/06 16:19:59;;;;;;;10.57;7.93;;;10.70;95.30;;;;;;20834745;28;20697;-67
2022/11/06 16:30:02;;;;;;;11.23;8.23;;;10.60;95.30;;;;;;20835883;28;20805;-68
2022/11/06 16:40:25;;;;;;;11.60;8.40;;;10.40;95.10;;;;;;20836420;28;20238;-68
2022/11/06 16:50:45;;;;;;;13.73;9.00;;;10.30;95.20;;;;;;20834832;28;20233;-68
2022/11/06 17:00:57;;;;;;;12.73;9.13;;;10.20;95.20;;;;;;20833995;28;20234;-68
2022/11/06 17:11:15;;;;;;;14.67;9.70;;;10.20;95.40;;;;;;20833835;28;20738;-66
2022/11/06 17:21:22;;;;;;;15.97;10.03;;;10.20;95.60;;;;;;20832586;28;20213;-69
2022/11/06 17:31:25;;;;;;;16.53;11.03;;;10.20;95.70;;;;;;20830634;28;20239;-75
2022/11/06 17:41:31;;;;;;;15.63;10.70;;;10.20;95.80;;;;;;20852577;28;20258;-70
2022/11/06 18:01:53;;;;;;;16.27;11.10;;;10.10;95.80;;;;;;20910486;28;20680;-69
2022/11/06 18:11:57;;;;;;;16.67;11.20;;;10.20;95.80;;;;;;20852413;28;20283;-70
2022/11/06 18:21:59;;;;;;;15.17;10.83;;;10.20;96.10;;;;;;20827973;28;20263;-69
2022/11/06 18:32:07;;;;;;;18.37;11.77;;;10.20;96.20;;;;;;20827513;28;20278;-69
2022/11/06 18:42:08;;;;;;;17.93;12.30;;;10.20;96.30;;;;;;20828623;28;20626;-67
2022/11/06 18:52:10;;;;;;;18.73;12.13;;;10.30;96.40;;;;;;20843766;28;20291;-68
2022/11/06 19:02:12;;;;;;;19.53;13.13;;;10.30;96.20;;;;;;20842980;28;20211;-67
2022/11/06 19:12:14;;;;;;;19.30;12.57;;;10.30;96.30;;;;;;20841313;28;20261;-68
2022/11/06 19:22:15;;;;;;;18.63;12.67;;;10.30;96.60;;;;;;20839823;28;20210;-67
2022/11/06 19:32:17;;;;;;;20.43;13.73;;;10.20;97.00;;;;;;20839349;28;20239;-67
2022/11/06 19:42:19;;;;;;;18.73;13.23;;;10.20;97.10;;;;;;20840200;28;20212;-68
2022/11/06 19:52:20;;;;;;;20.10;14.50;;;10.20;97.40;;;;;;20839424;28;20305;-70
2022/11/06 20:02:42;;;;;;;21.33;14.37;;;10.20;97.60;;;;;;20838061;28;20212;-66
2022/11/06 20:12:44;;;;;;;20.90;14.10;;;10.20;97.60;;;;;;20832770;28;20235;-66
2022/11/06 20:22:47;;;;;;;22.40;15.10;;;10.20;97.90;;;;;;20834991;28;20204;-72
2022/11/06 20:32:48;;;;;;;24.73;14.77;;;10.30;98.10;;;;;;20835847;28;20242;-71
2022/11/06 20:42:50;;;;;;;25.33;15.10;;;10.30;98.40;;;;;;20833694;28;20617;-71
2022/11/06 20:52:52;;;;;;;21.47;14.50;;;10.30;98.70;;;;;;20832890;28;20242;-70
2022/11/06 21:02:53;;;;;;;19.60;14.17;;;10.20;99.10;;;;;;20831993;28;20260;-71
2022/11/06 21:13:02;;;;;;;21.00;13.90;;;10.20;98.90;;;;;;20830222;28;20238;-69
2022/11/06 21:23:03;;;;;;;20.33;14.03;;;10.00;99.20;;;;;;20830755;28;20206;-70
2022/11/06 21:33:05;;;;;;;23.87;15.27;;;10.00;99.20;;;;;;20829492;28;20241;-71
2022/11/06 21:43:07;;;;;;;23.20;15.20;;;9.90;99.80;;;;;;20827964;28;20264;-70
2022/11/06 22:03:31;;;;;;;23.90;14.80;;;9.70;99.90;;;;;;20827705;28;20214;-71
2022/11/06 22:13:33;;;;;;;21.60;14.23;;;9.40;99.90;;;;;;20824810;28;20229;-71
2022/11/06 22:23:35;;;;;;;22.83;14.67;;;9.40;99.90;;;;;;20837139;28;20209;-69
2022/11/06 22:33:38;;;;;;;23.33;14.23;;;9.30;99.90;;;;;;20843765;28;20233;-71
2022/11/06 22:43:40;;;;;;;10.93;6.03;;;9.40;99.90;;;;;;20844798;28;20219;-68
2022/11/06 22:53:42;;;;;;;7.97;5.10;;;9.60;99.90;;;;;;20844625;28;20724;-70
2022/11/06 23:03:44;;;;;;;6.30;4.53;;;9.80;99.90;;;;;;20843609;28;20207;-74
2022/11/06 23:13:45;;;;;;;6.30;4.43;;;10.00;98.90;;;;;;20842487;28;20296;-71
2022/11/06 23:23:47;;;;;;;7.33;4.67;;;10.20;98.60;;;;;;20907226;28;20266;-69
2022/11/06 23:33:49;;;;;;;6.00;3.97;;;10.30;98.20;;;;;;20920278;28;20645;-70
2022/11/06 23:43:51;;;;;;;5.40;3.83;;;10.30;97.90;;;;;;20923055;28;20268;-70
2022/11/06 23:53:53;;;;;;;5.33;3.47;;;10.50;97.30;;;;;;20922395;28;20253;-71
